Time;durP1;ratioP1;P1;durP2;ratioP2;P2;SDS_P1;SDS_P2;PMS_P1;PMS_P2;Temp;Humidity;BMP_temperature;BMP_pressure;BME280_temperature;BME280_humidity;BME280_pressure;Samples;Min_cycle;Max_cycle;Signal;HPM_P1;HPM_P2
2024/04/21 00:00:47;;;;;;;7.82;4.80;;;;;;;;;;5395105;26;21159;-67
2024/04/21 00:03:13;;;;;;;8.48;5.30;;;;;;;;;;5412530;26;20754;-68
2024/04/21 00:05:39;;;;;;;12.93;5.47;;;;;;;;;;5411289;26;20075;-67
2024/04/21 00:08:06;;;;;;;5.38;4.78;;;;;;;;;;5423409;26;20446;-67
2024/04/21 00:10:32;;;;;;;8.40;5.20;;;;;;;;;;5419301;26;20000;-67
2024/04/21 00:12:58;;;;;;;7.63;5.00;;;;;;;;;;5389918;26;20009;-67
2024/04/21 00:15:24;;;;;;;10.13;5.53;;;;;;;;;;5420287;26;20017;-68
2024/04/21 00:17:51;;;;;;;8.20;4.20;;;;;;;;;;5417882;26;19999;-68
2024/04/21 00:20:17;;;;;;;7.88;4.85;;;;;;;;;;5394383;26;19995;-68
2024/04/21 00:22:43;;;;;;;8.13;4.57;;;;;;;;;;5390944;26;20554;-68
2024/04/21 00:25:09;;;;;;;8.82;4.03;;;;;;;;;;5418659;26;19999;-67
2024/04/21 00:27:35;;;;;;;7.72;4.72;;;;;;;;;;5429605;26;20010;-68
2024/04/21 00:30:02;;;;;;;8.30;5.13;;;;;;;;;;5393163;26;20018;-68
2024/04/21 00:32:28;;;;;;;10.25;4.97;;;;;;;;;;5425753;26;20014;-68
2024/04/21 00:34:54;;;;;;;8.57;4.50;;;;;;;;;;5386422;26;20005;-68
2024/04/21 00:37:20;;;;;;;7.25;4.93;;;;;;;;;;5410773;26;22218;-68
2024/04/21 00:39:46;;;;;;;6.63;4.38;;;;;;;;;;5418956;26;20465;-68
2024/04/21 00:42:13;;;;;;;4.47;3.70;;;;;;;;;;5412395;26;19995;-68
2024/04/21 00:44:39;;;;;;;6.00;3.70;;;;;;;;;;5413048;26;20027;-68
2024/04/21 00:47:05;;;;;;;9.23;4.15;;;;;;;;;;5414190;26;19999;-67
2024/04/21 00:49:32;;;;;;;6.03;4.82;;;;;;;;;;5418499;26;19995;-68
2024/04/21 00:51:58;;;;;;;5.60;4.03;;;;;;;;;;5416457;26;20494;-67
2024/04/21 00:54:24;;;;;;;12.18;4.55;;;;;;;;;;5424841;26;19999;-68
2024/04/21 00:56:52;;;;;;;5.70;4.53;;;;;;;;;;5408180;26;20018;-68
2024/04/21 00:59:18;;;;;;;7.07;4.13;;;;;;;;;;5426025;26;20548;-68
2024/04/21 01:01:46;;;;;;;6.95;3.92;;;;;;;;;;5422161;26;20010;-68
2024/04/21 01:04:12;;;;;;;6.15;3.78;;;;;;;;;;5416454;26;20067;-68
2024/04/21 01:06:40;;;;;;;5.22;4.07;;;;;;;;;;5401226;26;20010;-68
2024/04/21 01:09:06;;;;;;;7.10;4.30;;;;;;;;;;5417342;26;19999;-67
2024/04/21 01:11:32;;;;;;;8.18;5.72;;;;;;;;;;5422394;26;20006;-68
2024/04/21 01:13:58;;;;;;;8.48;5.68;;;;;;;;;;5411241;26;20370;-67
2024/04/21 01:16:25;;;;;;;9.63;5.75;;;;;;;;;;5390635;26;19999;-68
2024/04/21 01:18:51;;;;;;;7.53;5.53;;;;;;;;;;5431490;26;20372;-68
2024/04/21 01:21:18;;;;;;;5.35;4.85;;;;;;;;;;5413515;26;20076;-68
2024/04/21 01:23:44;;;;;;;6.78;5.43;;;;;;;;;;5423962;26;20762;-68
2024/04/21 01:26:11;;;;;;;8.15;4.45;;;;;;;;;;5398410;26;20013;-69
2024/04/21 01:28:37;;;;;;;11.40;5.20;;;;;;;;;;5425034;26;19999;-68
2024/04/21 01:31:03;;;;;;;10.48;5.53;;;;;;;;;;5421581;26;20002;-68
2024/04/21 01:33:29;;;;;;;8.82;6.70;;;;;;;;;;5423018;26;20434;-68
2024/04/21 01:35:55;;;;;;;5.70;4.43;;;;;;;;;;5416436;26;20011;-68
2024/04/21 01:38:22;;;;;;;7.45;5.72;;;;;;;;;;5411721;26;20050;-68
2024/04/21 01:40:48;;;;;;;9.32;5.50;;;;;;;;;;5425177;26;20409;-68
2024/04/21 01:43:14;;;;;;;14.43;5.95;;;;;;;;;;5414904;26;20007;-68
2024/04/21 01:45:41;;;;;;;11.93;4.82;;;;;;;;;;5414935;26;20591;-68
2024/04/21 01:48:07;;;;;;;8.48;4.55;;;;;;;;;;5420775;26;20052;-68
2024/04/21 01:50:33;;;;;;;9.45;4.70;;;;;;;;;;5411315;26;20280;-68
2024/04/21 01:53:00;;;;;;;8.75;4.93;;;;;;;;;;5416342;26;19991;-67
2024/04/21 01:55:26;;;;;;;8.65;4.85;;;;;;;;;;5421093;26;20007;-70
2024/04/21 01:57:52;;;;;;;11.35;4.57;;;;;;;;;;5423251;26;20003;-68
2024/04/21 02:00:18;;;;;;;7.80;5.13;;;;;;;;;;5422373;26;20013;-68
2024/04/21 02:02:44;;;;;;;8.95;4.75;;;;;;;;;;5426380;26;20513;-67
2024/04/21 02:05:10;;;;;;;6.35;3.92;;;;;;;;;;5423774;26;20459;-68
2024/04/21 02:07:37;;;;;;;7.78;4.88;;;;;;;;;;5422002;26;20027;-69
2024/04/21 02:10:03;;;;;;;5.35;3.92;;;;;;;;;;5417273;26;20014;-68
2024/04/21 02:12:29;;;;;;;10.00;4.80;;;;;;;;;;5419283;26;20260;-69
2024/04/21 02:14:55;;;;;;;6.32;4.32;;;;;;;;;;5355460;26;1246848;-67
2024/04/21 02:17:21;;;;;;;7.03;4.47;;;;;;;;;;5422675;26;20533;-68
2024/04/21 02:19:48;;;;;;;14.65;4.82;;;;;;;;;;5429131;26;19998;-63
2024/04/21 02:22:14;;;;;;;9.80;4.47;;;;;;;;;;5390644;26;20002;-63
2024/04/21 02:24:41;;;;;;;8.95;4.53;;;;;;;;;;5415497;26;20017;-64
2024/04/21 02:27:07;;;;;;;7.70;4.32;;;;;;;;;;5427667;26;20079;-63
2024/04/21 02:29:33;;;;;;;8.05;4.50;;;;;;;;;;5392080;26;19998;-63
2024/04/21 02:31:59;;;;;;;5.60;5.05;;;;;;;;;;5397322;26;20308;-63
2024/04/21 02:34:25;;;;;;;6.70;4.78;;;;;;;;;;5420254;26;20031;-63
2024/04/21 02:36:52;;;;;;;8.27;4.85;;;;;;;;;;5390344;26;20039;-64
2024/04/21 02:39:18;;;;;;;8.50;4.95;;;;;;;;;;5419734;26;20042;-63
2024/04/21 02:41:44;;;;;;;7.32;4.40;;;;;;;;;;5429911;26;20356;-63
2024/04/21 02:44:10;;;;;;;6.15;4.65;;;;;;;;;;5383987;26;20033;-63
2024/04/21 02:46:37;;;;;;;4.57;4.03;;;;;;;;;;5414282;26;20066;-64
2024/04/21 02:49:03;;;;;;;6.85;4.35;;;;;;;;;;5395035;26;20006;-63
2024/04/21 02:51:29;;;;;;;6.93;3.83;;;;;;;;;;5393426;26;20338;-63
2024/04/21 02:53:56;;;;;;;8.68;4.03;;;;;;;;;;5430878;26;20466;-63
2024/04/21 02:56:22;;;;;;;7.82;5.13;;;;;;;;;;5412773;26;20013;-63
2024/04/21 02:58:49;;;;;;;14.45;3.88;;;;;;;;;;5427849;26;20325;-63
2024/04/21 03:01:15;;;;;;;7.78;3.70;;;;;;;;;;5391549;26;20064;-63
2024/04/21 03:03:41;;;;;;;6.65;4.47;;;;;;;;;;5427010;26;19995;-64
2024/04/21 03:06:08;;;;;;;8.43;4.80;;;;;;;;;;5418417;26;20010;-63
2024/04/21 03:08:34;;;;;;;6.22;4.75;;;;;;;;;;5412010;26;19998;-63
2024/04/21 03:11:00;;;;;;;4.85;3.58;;;;;;;;;;5420556;26;20002;-64
2024/04/21 03:13:26;;;;;;;4.93;3.42;;;;;;;;;;5418562;26;20018;-63
2024/04/21 03:15:53;;;;;;;5.30;3.90;;;;;;;;;;5416356;26;20009;-63
2024/04/21 03:18:19;;;;;;;9.85;3.75;;;;;;;;;;5409645;26;19994;-63
2024/04/21 03:20:55;;;;;;;6.22;3.95;;;;;;;;;;5423587;26;20430;-63
2024/04/21 03:23:22;;;;;;;5.15;3.65;;;;;;;;;;5411984;26;20022;-64
2024/04/21 03:25:48;;;;;;;5.97;3.42;;;;;;;;;;5413502;26;20426;-63
2024/04/21 03:28:14;;;;;;;4.82;3.50;;;;;;;;;;5416276;26;20007;-63
2024/04/21 03:30:40;;;;;;;5.68;3.97;;;;;;;;;;5409305;26;20004;-64
2024/04/21 03:33:08;;;;;;;5.38;3.25;;;;;;;;;;5419803;26;20080;-63
2024/04/21 03:35:34;;;;;;;4.28;3.55;;;;;;;;;;5416876;26;20127;-63
2024/04/21 03:38:01;;;;;;;9.38;3.50;;;;;;;;;;5420549;26;20015;-64
2024/04/21 03:40:27;;;;;;;10.27;3.70;;;;;;;;;;5416297;26;20411;-63
2024/04/21 03:42:53;;;;;;;7.28;3.70;;;;;;;;;;5428326;26;20013;-64
2024/04/21 03:45:20;;;;;;;10.80;4.68;;;;;;;;;;5359645;26;19996;-63
2024/04/21 03:47:46;;;;;;;6.68;3.28;;;;;;;;;;5423622;26;20035;-63
2024/04/21 03:50:12;;;;;;;3.83;3.15;;;;;;;;;;5415975;26;19995;-64
2024/04/21 03:52:38;;;;;;;8.30;4.78;;;;;;;;;;5425012;26;20454;-64
2024/04/21 03:55:05;;;;;;;7.15;4.40;;;;;;;;;;5392204;26;20541;-64
2024/04/21 03:57:31;;;;;;;8.48;4.68;;;;;;;;;;5382691;26;20388;-64
2024/04/21 03:59:57;;;;;;;6.40;3.92;;;;;;;;;;5413880;26;20010;-64
2024/04/21 04:02:23;;;;;;;8.52;3.63;;;;;;;;;;5411089;26;20014;-64
2024/04/21 04:04:49;;;;;;;5.13;3.45;;;;;;;;;;5425380;26;20031;-64
2024/04/21 04:07:16;;;;;;;6.15;3.95;;;;;;;;;;5396025;26;20010;-64
2024/04/21 04:09:42;;;;;;;6.05;4.20;;;;;;;;;;5427364;26;20063;-64
2024/04/21 04:12:08;;;;;;;5.18;3.65;;;;;;;;;;5407426;26;20370;-64
2024/04/21 04:14:34;;;;;;;5.95;4.25;;;;;;;;;;5391238;26;20316;-64
2024/04/21 04:17:01;;;;;;;7.03;4.35;;;;;;;;;;5414440;26;20540;-64
2024/04/21 04:19:27;;;;;;;6.72;3.95;;;;;;;;;;5382932;26;20003;-64
2024/04/21 04:21:53;;;;;;;6.40;4.25;;;;;;;;;;5423683;26;20340;-64
2024/04/21 04:24:19;;;;;;;5.35;3.08;;;;;;;;;;5423375;26;20077;-64
2024/04/21 04:26:45;;;;;;;4.43;3.75;;;;;;;;;;5420866;26;20006;-64
2024/04/21 04:29:11;;;;;;;6.72;4.20;;;;;;;;;;5417962;26;19995;-64
2024/04/21 04:31:38;;;;;;;4.90;3.50;;;;;;;;;;5390367;26;20020;-64
2024/04/21 04:34:04;;;;;;;7.85;3.17;;;;;;;;;;5388618;26;20524;-64
2024/04/21 04:36:30;;;;;;;5.00;3.97;;;;;;;;;;5410529;26;19999;-64
2024/04/21 04:38:56;;;;;;;5.55;4.22;;;;;;;;;;5415116;26;20014;-64
2024/04/21 04:41:22;;;;;;;8.75;5.10;;;;;;;;;;5419158;26;20341;-64
2024/04/21 04:43:48;;;;;;;4.35;3.92;;;;;;;;;;5416092;26;20014;-64
2024/04/21 04:46:15;;;;;;;5.10;3.40;;;;;;;;;;5406393;26;19999;-64
2024/04/21 04:48:41;;;;;;;4.80;2.95;;;;;;;;;;5414120;26;20031;-64
2024/04/21 04:51:07;;;;;;;5.07;3.50;;;;;;;;;;5422560;26;19998;-64
2024/04/21 04:53:33;;;;;;;4.72;3.83;;;;;;;;;;5424170;26;20710;-64
2024/04/21 04:55:59;;;;;;;14.88;4.55;;;;;;;;;;5382523;26;20567;-64
2024/04/21 04:58:26;;;;;;;7.13;4.55;;;;;;;;;;5420038;26;20007;-64
2024/04/21 05:00:52;;;;;;;6.88;3.90;;;;;;;;;;5362426;26;20992;-64
2024/04/21 05:03:18;;;;;;;5.85;3.40;;;;;;;;;;5420270;26;20545;-64
2024/04/21 05:05:45;;;;;;;7.07;4.00;;;;;;;;;;5392209;26;19999;-64
2024/04/21 05:08:11;;;;;;;4.80;3.72;;;;;;;;;;5416383;26;20826;-64
2024/04/21 05:10:37;;;;;;;12.45;4.18;;;;;;;;;;5429723;26;20036;-64
2024/04/21 05:13:03;;;;;;;8.77;4.32;;;;;;;;;;5418352;26;20007;-64
2024/04/21 05:15:30;;;;;;;10.43;3.88;;;;;;;;;;5419986;26;20048;-64
2024/04/21 05:17:57;;;;;;;6.22;3.88;;;;;;;;;;5420660;26;20018;-63
2024/04/21 05:20:23;;;;;;;7.47;3.67;;;;;;;;;;5419751;26;19995;-64
2024/04/21 05:22:49;;;;;;;7.07;3.92;;;;;;;;;;5415566;26;20436;-64
2024/04/21 05:25:15;;;;;;;6.03;3.90;;;;;;;;;;5415407;26;20005;-64
2024/04/21 05:27:41;;;;;;;6.43;3.50;;;;;;;;;;5424112;26;20442;-65
2024/04/21 05:30:08;;;;;;;8.82;4.80;;;;;;;;;;5419154;26;19992;-68
2024/04/21 05:32:34;;;;;;;4.78;3.25;;;;;;;;;;5424959;26;20022;-70
2024/04/21 05:35:01;;;;;;;8.00;4.60;;;;;;;;;;5426732;26;20334;-70
2024/04/21 05:37:27;;;;;;;8.15;3.83;;;;;;;;;;5402727;26;20017;-70
2024/04/21 05:39:53;;;;;;;8.05;4.53;;;;;;;;;;5399210;26;19995;-72
2024/04/21 05:42:19;;;;;;;9.65;3.40;;;;;;;;;;5425296;26;19999;-71
2024/04/21 05:44:45;;;;;;;5.78;3.70;;;;;;;;;;5405106;26;19995;-71
2024/04/21 05:47:12;;;;;;;6.45;4.10;;;;;;;;;;5430334;26;20003;-70
2024/04/21 05:49:38;;;;;;;6.18;4.15;;;;;;;;;;5419455;26;20002;-71
2024/04/21 05:52:05;;;;;;;9.65;4.68;;;;;;;;;;5419618;26;20006;-63
2024/04/21 05:54:31;;;;;;;8.43;4.85;;;;;;;;;;5416605;26;20014;-63
2024/04/21 05:56:58;;;;;;;12.70;5.32;;;;;;;;;;5429234;26;20003;-64
2024/04/21 05:59:24;;;;;;;13.70;5.43;;;;;;;;;;5423597;26;20065;-68
2024/04/21 06:01:51;;;;;;;7.93;5.15;;;;;;;;;;5434996;26;20013;-70
2024/04/21 06:04:17;;;;;;;13.88;5.72;;;;;;;;;;5415388;26;20439;-63
2024/04/21 06:06:43;;;;;;;8.30;4.07;;;;;;;;;;5413313;26;20033;-64
2024/04/21 06:09:09;;;;;;;7.93;4.93;;;;;;;;;;5423250;26;20009;-67
2024/04/21 06:11:35;;;;;;;10.32;4.75;;;;;;;;;;5414646;26;20003;-69
2024/04/21 06:14:08;;;;;;;8.93;4.25;;;;;;;;;;5425430;26;20003;-65
2024/04/21 06:16:34;;;;;;;5.90;3.35;;;;;;;;;;5348236;26;20011;-68
2024/04/21 06:19:00;;;;;;;7.72;3.63;;;;;;;;;;5355406;26;20107;-71
2024/04/21 06:21:26;;;;;;;5.25;3.83;;;;;;;;;;5357286;26;20440;-67
2024/04/21 06:23:53;;;;;;;4.82;3.17;;;;;;;;;;5355865;26;20000;-68
2024/04/21 06:26:19;;;;;;;8.25;4.28;;;;;;;;;;5350369;26;20028;-65
2024/04/21 06:28:45;;;;;;;6.03;4.15;;;;;;;;;;5354800;26;20004;-71
2024/04/21 06:31:11;;;;;;;4.50;3.40;;;;;;;;;;5355431;26;20059;-70
2024/04/21 06:33:37;;;;;;;6.32;3.88;;;;;;;;;;5386755;26;20318;-65
2024/04/21 06:36:04;;;;;;;5.03;3.35;;;;;;;;;;5352504;26;21153;-72
2024/04/21 06:38:31;;;;;;;6.85;3.80;;;;;;;;;;5346939;26;20529;-71
2024/04/21 06:40:58;;;;;;;3.28;2.90;;;;;;;;;;5355344;26;20046;-71
2024/04/21 06:43:24;;;;;;;4.28;3.50;;;;;;;;;;5351271;26;20004;-73
2024/04/21 06:45:50;;;;;;;4.22;3.05;;;;;;;;;;5349776;26;20063;-65
2024/04/21 06:48:16;;;;;;;4.65;3.35;;;;;;;;;;5346614;26;20490;-67
2024/04/21 06:50:42;;;;;;;6.88;3.95;;;;;;;;;;5346385;26;20068;-67
2024/04/21 06:53:09;;;;;;;7.20;3.90;;;;;;;;;;5344591;26;20019;-65
2024/04/21 06:55:35;;;;;;;6.68;3.90;;;;;;;;;;5340583;26;20448;-66
2024/04/21 06:58:01;;;;;;;11.15;4.32;;;;;;;;;;5328285;26;20694;-64
2024/04/21 07:00:27;;;;;;;7.82;3.90;;;;;;;;;;5353276;26;20019;-65
2024/04/21 07:02:53;;;;;;;7.18;3.85;;;;;;;;;;5339870;26;20004;-65
2024/04/21 07:05:20;;;;;;;7.60;3.78;;;;;;;;;;5349028;26;20576;-64
2024/04/21 07:07:46;;;;;;;8.90;4.68;;;;;;;;;;5344858;26;20019;-64
2024/04/21 07:10:12;;;;;;;10.25;4.30;;;;;;;;;;5339213;26;20077;-65
2024/04/21 07:12:38;;;;;;;8.73;4.60;;;;;;;;;;5351216;26;20170;-65
2024/04/21 07:15:04;;;;;;;7.47;4.53;;;;;;;;;;5363622;26;20004;-65
2024/04/21 07:17:31;;;;;;;7.03;3.58;;;;;;;;;;5385873;26;19999;-64
2024/04/21 07:19:57;;;;;;;12.25;4.20;;;;;;;;;;5377578;26;19992;-65
2024/04/21 07:22:23;;;;;;;8.70;3.92;;;;;;;;;;5388707;26;20055;-64
2024/04/21 07:24:49;;;;;;;5.53;3.67;;;;;;;;;;5378547;26;20487;-65
2024/04/21 07:27:15;;;;;;;7.22;3.95;;;;;;;;;;5358820;26;20028;-70
2024/04/21 07:29:41;;;;;;;7.32;3.55;;;;;;;;;;5385659;26;20041;-72
2024/04/21 07:32:08;;;;;;;7.30;3.92;;;;;;;;;;5379895;26;20011;-69
2024/04/21 07:34:34;;;;;;;6.78;4.28;;;;;;;;;;5383710;26;19998;-72
2024/04/21 07:37:00;;;;;;;9.73;4.22;;;;;;;;;;5376021;26;20036;-65
2024/04/21 07:39:29;;;;;;;9.40;3.47;;;;;;;;;;5412534;26;20372;-66
2024/04/21 07:41:55;;;;;;;6.47;4.32;;;;;;;;;;5380644;26;19999;-65
2024/04/21 07:44:22;;;;;;;6.28;4.13;;;;;;;;;;5383826;26;20035;-65
2024/04/21 07:46:48;;;;;;;4.93;3.30;;;;;;;;;;5378703;26;20017;-68
2024/04/21 07:49:14;;;;;;;5.20;3.30;;;;;;;;;;5382473;26;19996;-66
2024/04/21 07:51:40;;;;;;;11.30;4.82;;;;;;;;;;5381817;26;20045;-65
2024/04/21 07:54:07;;;;;;;6.05;3.58;;;;;;;;;;5391005;26;20343;-64
2024/04/21 07:56:34;;;;;;;3.97;3.53;;;;;;;;;;5386012;26;19995;-64
2024/04/21 07:59:00;;;;;;;4.60;3.70;;;;;;;;;;5380144;26;21342;-64
2024/04/21 08:01:26;;;;;;;3.25;2.88;;;;;;;;;;5379263;26;20022;-64
2024/04/21 08:03:52;;;;;;;8.00;3.53;;;;;;;;;;5366996;26;20464;-64
2024/04/21 08:06:18;;;;;;;3.88;3.35;;;;;;;;;;5381363;26;20011;-63
2024/04/21 08:08:44;;;;;;;5.45;3.75;;;;;;;;;;5378098;26;20510;-64
2024/04/21 08:11:11;;;;;;;5.38;3.75;;;;;;;;;;5386591;26;20003;-64
2024/04/21 08:13:37;;;;;;;11.93;4.00;;;;;;;;;;5379965;26;20000;-64
2024/04/21 08:16:03;;;;;;;7.30;3.35;;;;;;;;;;5411713;26;20003;-64
2024/04/21 08:18:30;;;;;;;5.10;3.50;;;;;;;;;;5404060;26;20474;-65
2024/04/21 08:20:56;;;;;;;6.82;3.28;;;;;;;;;;5396195;26;20321;-66
2024/04/21 08:23:22;;;;;;;10.10;3.75;;;;;;;;;;5386619;26;20002;-67
2024/04/21 08:25:48;;;;;;;5.45;2.85;;;;;;;;;;5422913;26;20003;-66
2024/04/21 08:28:15;;;;;;;4.68;3.13;;;;;;;;;;5419629;26;20474;-68
2024/04/21 08:30:45;;;;;;;2.47;1.90;;;;;;;;;;5410824;26;20017;-67
2024/04/21 08:33:11;;;;;;;2.53;1.90;;;;;;;;;;5410837;26;20076;-68
2024/04/21 08:35:37;;;;;;;3.38;2.20;;;;;;;;;;5407212;26;20046;-68
2024/04/21 08:38:04;;;;;;;2.72;1.92;;;;;;;;;;5428479;26;20067;-69
2024/04/21 08:40:30;;;;;;;2.67;2.38;;;;;;;;;;5415882;26;19995;-69
2024/04/21 08:43:00;;;;;;;1.80;1.70;;;;;;;;;;5414857;26;20510;-69
2024/04/21 08:45:28;;;;;;;2.78;2.30;;;;;;;;;;5417395;26;20414;-69
2024/04/21 08:47:54;;;;;;;2.15;1.77;;;;;;;;;;5426116;26;20013;-67
2024/04/21 08:50:21;;;;;;;8.35;2.38;;;;;;;;;;5418482;26;20007;-67
2024/04/21 08:52:48;;;;;;;3.92;2.15;;;;;;;;;;5424862;26;20666;-67
2024/04/21 08:55:15;;;;;;;2.45;2.10;;;;;;;;;;5421725;26;20014;-67
2024/04/21 08:57:41;;;;;;;4.85;2.30;;;;;;;;;;5424959;26;19998;-68
2024/04/21 09:00:09;;;;;;;2.58;2.03;;;;;;;;;;5425841;26;20101;-67
2024/04/21 09:02:35;;;;;;;2.55;2.00;;;;;;;;;;5427373;26;20426;-68
2024/04/21 09:05:02;;;;;;;3.00;2.50;;;;;;;;;;5412870;26;20011;-67
2024/04/21 09:07:30;;;;;;;5.32;2.55;;;;;;;;;;5425056;26;20006;-67
2024/04/21 09:09:57;;;;;;;3.10;2.10;;;;;;;;;;5426581;26;20007;-67
2024/04/21 09:12:23;;;;;;;3.65;2.53;;;;;;;;;;5425896;26;20401;-68
2024/04/21 09:14:50;;;;;;;2.30;2.00;;;;;;;;;;5427538;26;20010;-68
2024/04/21 09:17:17;;;;;;;2.35;2.10;;;;;;;;;;5388089;26;20010;-67
2024/04/21 09:19:43;;;;;;;3.72;2.30;;;;;;;;;;5415622;26;20000;-68
2024/04/21 09:22:09;;;;;;;2.13;1.90;;;;;;;;;;5420854;26;20003;-68
2024/04/21 09:24:36;;;;;;;3.50;2.42;;;;;;;;;;5422196;26;20011;-68
2024/04/21 09:27:03;;;;;;;3.50;1.88;;;;;;;;;;5394140;26;20014;-68
2024/04/21 09:29:29;;;;;;;2.75;1.90;;;;;;;;;;5425906;26;20014;-68
2024/04/21 09:31:55;;;;;;;2.10;1.90;;;;;;;;;;5422104;26;20022;-68
2024/04/21 09:34:21;;;;;;;2.90;2.28;;;;;;;;;;5411272;26;19999;-68
2024/04/21 09:36:48;;;;;;;3.03;2.45;;;;;;;;;;5422402;26;19999;-71
2024/04/21 09:39:15;;;;;;;4.13;2.17;;;;;;;;;;5435118;26;20003;-69
2024/04/21 09:41:44;;;;;;;2.72;2.03;;;;;;;;;;5417351;26;20007;-68
2024/04/21 09:44:11;;;;;;;5.38;2.25;;;;;;;;;;5422864;26;20840;-69
2024/04/21 09:46:38;;;;;;;3.13;2.10;;;;;;;;;;5413855;26;20070;-68
2024/04/21 09:49:05;;;;;;;5.28;2.28;;;;;;;;;;5383035;26;20025;-68
2024/04/21 09:51:32;;;;;;;3.22;2.40;;;;;;;;;;5419045;26;20047;-68
2024/04/21 09:54:00;;;;;;;2.45;2.03;;;;;;;;;;5418748;26;19998;-69
2024/04/21 09:56:32;;;;;;;3.65;2.47;;;;;;;;;;5415516;26;20647;-68
2024/04/21 09:59:01;;;;;;;5.82;2.15;;;;;;;;;;5401712;26;20031;-68
2024/04/21 10:01:32;;;;;;;2.45;1.98;;;;;;;;;;5431660;26;20007;-69
2024/04/21 10:04:01;;;;;;;4.00;2.70;;;;;;;;;;5440955;26;20100;-68
2024/04/21 10:06:29;;;;;;;2.83;2.22;;;;;;;;;;5412857;26;20010;-68
2024/04/21 10:08:58;;;;;;;2.38;2.17;;;;;;;;;;5416100;26;20003;-68
2024/04/21 10:11:24;;;;;;;2.17;1.98;;;;;;;;;;5378489;26;20137;-68
2024/04/21 10:13:52;;;;;;;3.08;2.30;;;;;;;;;;5421260;26;20308;-69
2024/04/21 10:16:19;;;;;;;4.65;2.33;;;;;;;;;;5413036;26;20551;-68
2024/04/21 10:18:45;;;;;;;3.38;2.40;;;;;;;;;;5397747;26;20460;-68
2024/04/21 10:21:14;;;;;;;2.88;2.35;;;;;;;;;;5394379;26;20027;-67
2024/04/21 10:23:40;;;;;;;4.05;2.30;;;;;;;;;;5409690;26;20021;-67
2024/04/21 10:26:08;;;;;;;3.20;2.50;;;;;;;;;;5394320;26;19995;-68
2024/04/21 10:28:34;;;;;;;2.80;2.20;;;;;;;;;;5418827;26;20432;-69
2024/04/21 10:31:04;;;;;;;3.17;2.45;;;;;;;;;;5415409;26;19998;-68
2024/04/21 10:33:31;;;;;;;3.00;2.30;;;;;;;;;;5427065;26;19995;-68
2024/04/21 10:35:57;;;;;;;3.13;2.47;;;;;;;;;;5414538;26;20532;-69
2024/04/21 10:38:24;;;;;;;3.28;2.40;;;;;;;;;;5412419;26;20089;-69
2024/04/21 10:40:50;;;;;;;4.18;2.38;;;;;;;;;;5419439;26;20949;-69
2024/04/21 10:43:17;;;;;;;7.63;2.50;;;;;;;;;;5409096;26;19991;-68
2024/04/21 10:45:43;;;;;;;4.45;2.35;;;;;;;;;;5416735;26;20007;-69
2024/04/21 10:48:10;;;;;;;3.75;2.20;;;;;;;;;;5409413;26;20511;-69
2024/04/21 10:50:38;;;;;;;4.35;2.35;;;;;;;;;;5421654;26;20059;-68
2024/04/21 10:53:08;;;;;;;3.28;2.33;;;;;;;;;;5395785;26;20011;-69
2024/04/21 10:55:35;;;;;;;3.15;2.72;;;;;;;;;;5399131;26;19994;-70
2024/04/21 10:58:02;;;;;;;4.50;2.50;;;;;;;;;;5420149;26;20048;-69
2024/04/21 11:00:29;;;;;;;4.47;2.10;;;;;;;;;;5381603;26;20320;-68
2024/04/21 11:02:55;;;;;;;4.18;2.60;;;;;;;;;;5419257;26;19995;-70
2024/04/21 11:05:28;;;;;;;2.70;2.17;;;;;;;;;;5392818;26;19998;-69
2024/04/21 11:07:54;;;;;;;4.13;2.35;;;;;;;;;;5394700;26;20008;-72
2024/04/21 11:10:20;;;;;;;5.55;2.50;;;;;;;;;;5422504;26;21318;-71
2024/04/21 11:12:49;;;;;;;7.45;2.42;;;;;;;;;;5418202;26;20011;-69
2024/04/21 11:15:17;;;;;;;2.65;2.08;;;;;;;;;;5418747;26;20006;-70
2024/04/21 11:17:43;;;;;;;3.13;2.17;;;;;;;;;;5422477;26;20013;-69
2024/04/21 11:20:11;;;;;;;2.80;2.05;;;;;;;;;;5415491;26;20682;-70
2024/04/21 11:22:38;;;;;;;3.35;2.10;;;;;;;;;;5415087;26;20021;-70
2024/04/21 11:25:04;;;;;;;5.03;2.63;;;;;;;;;;5440741;26;20006;-70
2024/04/21 11:27:31;;;;;;;2.65;2.08;;;;;;;;;;5438131;26;20691;-70
2024/04/21 11:29:57;;;;;;;7.18;2.70;;;;;;;;;;5448717;26;20076;-66
2024/04/21 11:32:23;;;;;;;2.58;2.10;;;;;;;;;;5439920;26;20247;-71
2024/04/21 11:34:49;;;;;;;2.33;2.08;;;;;;;;;;5442502;26;20002;-70
2024/04/21 11:37:19;;;;;;;3.85;2.63;;;;;;;;;;5411165;26;20451;-67
2024/04/21 11:39:46;;;;;;;3.13;2.28;;;;;;;;;;5441221;26;20039;-71
2024/04/21 11:42:12;;;;;;;3.13;2.03;;;;;;;;;;5445728;26;20008;-70
2024/04/21 11:44:39;;;;;;;3.05;2.10;;;;;;;;;;5438313;26;20458;-70
2024/04/21 11:47:05;;;;;;;1.92;1.80;;;;;;;;;;5440761;26;19999;-70
2024/04/21 11:49:35;;;;;;;3.70;2.15;;;;;;;;;;5407017;26;19998;-70
2024/04/21 11:52:02;;;;;;;3.80;2.42;;;;;;;;;;5449214;26;20379;-70
2024/04/21 11:54:28;;;;;;;6.32;2.65;;;;;;;;;;5437698;26;20029;-70
2024/04/21 11:56:54;;;;;;;5.07;2.40;;;;;;;;;;5409910;26;20318;-68
2024/04/21 11:59:21;;;;;;;2.63;2.00;;;;;;;;;;5410561;26;20017;-68
2024/04/21 12:01:48;;;;;;;3.15;1.92;;;;;;;;;;5438859;26;20770;-68
2024/04/21 12:04:14;;;;;;;2.33;2.05;;;;;;;;;;5430092;26;20010;-71
2024/04/21 12:06:40;;;;;;;3.53;2.10;;;;;;;;;;5436054;26;20534;-73
2024/04/21 12:09:08;;;;;;;3.35;1.90;;;;;;;;;;5444642;26;20371;-71
2024/04/21 12:11:34;;;;;;;4.00;2.10;;;;;;;;;;5430052;26;20428;-71
2024/04/21 12:14:32;;;;;;;3.75;2.33;;;;;;;;;;5437508;26;20212;-70
2024/04/21 12:16:58;;;;;;;3.70;2.10;;;;;;;;;;5402365;26;20007;-71
2024/04/21 12:19:27;;;;;;;3.28;2.53;;;;;;;;;;5409377;26;20003;-71
2024/04/21 12:21:54;;;;;;;3.15;2.60;;;;;;;;;;5442499;26;20657;-70
2024/04/21 12:24:21;;;;;;;4.45;2.33;;;;;;;;;;5444252;26;20009;-71
2024/04/21 12:26:48;;;;;;;2.83;2.28;;;;;;;;;;5412311;26;20494;-72
2024/04/21 12:29:14;;;;;;;5.13;2.10;;;;;;;;;;5402218;26;20031;-71
2024/04/21 12:31:42;;;;;;;2.67;2.20;;;;;;;;;;5433419;26;20784;-71
2024/04/21 12:34:09;;;;;;;3.35;3.00;;;;;;;;;;5457600;26;19999;-70
2024/04/21 12:36:36;;;;;;;2.60;2.40;;;;;;;;;;5425679;26;22525;-70
2024/04/21 12:39:03;;;;;;;2.55;2.10;;;;;;;;;;5440144;26;19991;-70
2024/04/21 12:41:29;;;;;;;6.10;3.47;;;;;;;;;;5401123;26;20574;-70
2024/04/21 12:43:55;;;;;;;2.50;2.20;;;;;;;;;;5445660;26;20006;-70
2024/04/21 12:46:22;;;;;;;4.00;2.38;;;;;;;;;;5412449;26;20026;-70
2024/04/21 12:48:48;;;;;;;2.38;2.10;;;;;;;;;;5416438;26;20537;-72
2024/04/21 12:51:15;;;;;;;8.43;3.70;;;;;;;;;;5421000;26;19998;-71
2024/04/21 12:53:43;;;;;;;5.70;2.60;;;;;;;;;;5417762;26;20036;-71
2024/04/21 12:56:09;;;;;;;2.63;2.10;;;;;;;;;;5389242;26;20659;-71
2024/04/21 12:58:36;;;;;;;3.30;2.30;;;;;;;;;;5403203;26;20006;-70
2024/04/21 13:01:03;;;;;;;3.13;2.60;;;;;;;;;;5431537;26;20017;-71
2024/04/21 13:03:30;;;;;;;4.32;2.30;;;;;;;;;;5440217;26;20003;-70
2024/04/21 13:05:56;;;;;;;6.97;2.75;;;;;;;;;;5439233;26;20185;-70
2024/04/21 13:08:22;;;;;;;2.78;2.40;;;;;;;;;;5404522;26;20469;-70
2024/04/21 13:10:48;;;;;;;2.80;2.30;;;;;;;;;;5427049;26;20320;-71
2024/04/21 13:13:15;;;;;;;4.40;2.45;;;;;;;;;;5436230;26;20457;-69
2024/04/21 13:15:41;;;;;;;3.25;2.40;;;;;;;;;;5390135;26;20009;-68
2024/04/21 13:18:08;;;;;;;4.78;2.70;;;;;;;;;;5440260;26;20006;-65
2024/04/21 13:20:34;;;;;;;2.92;2.38;;;;;;;;;;5436376;26;20003;-65
2024/04/21 13:23:00;;;;;;;5.32;2.47;;;;;;;;;;5427700;26;20899;-69
2024/04/21 13:25:26;;;;;;;5.95;2.40;;;;;;;;;;5435851;26;20078;-69
2024/04/21 13:27:52;;;;;;;3.08;2.60;;;;;;;;;;5441346;26;20040;-69
2024/04/21 13:30:19;;;;;;;4.47;2.53;;;;;;;;;;5433324;26;21343;-68
2024/04/21 13:32:45;;;;;;;3.53;2.50;;;;;;;;;;5441247;26;20031;-69
2024/04/21 13:35:11;;;;;;;3.30;2.53;;;;;;;;;;5435506;26;19998;-69
2024/04/21 13:37:38;;;;;;;4.00;2.60;;;;;;;;;;5437440;26;20529;-69
2024/04/21 13:40:05;;;;;;;2.75;2.20;;;;;;;;;;5436334;26;20009;-68
2024/04/21 13:42:31;;;;;;;3.60;2.00;;;;;;;;;;5399259;26;20343;-69
2024/04/21 13:44:58;;;;;;;4.65;2.25;;;;;;;;;;5430202;26;20029;-68
2024/04/21 13:47:24;;;;;;;2.53;2.00;;;;;;;;;;5442638;26;20621;-70
2024/04/21 13:49:50;;;;;;;4.38;2.28;;;;;;;;;;5440898;26;20473;-69
2024/04/21 13:52:16;;;;;;;5.20;2.30;;;;;;;;;;5418673;26;20010;-70
2024/04/21 13:54:43;;;;;;;5.03;2.50;;;;;;;;;;5432622;26;20006;-70
2024/04/21 13:57:09;;;;;;;4.10;2.72;;;;;;;;;;5410479;26;20009;-70
2024/04/21 13:59:35;;;;;;;4.32;1.90;;;;;;;;;;5405222;26;20999;-70
2024/04/21 14:02:01;;;;;;;3.95;2.10;;;;;;;;;;5440077;26;20010;-70
2024/04/21 14:04:27;;;;;;;2.63;2.15;;;;;;;;;;5442323;26;20045;-69
2024/04/21 14:06:53;;;;;;;5.45;2.40;;;;;;;;;;5414353;26;20073;-69
2024/04/21 14:09:20;;;;;;;2.67;2.10;;;;;;;;;;5441099;26;20078;-69
2024/04/21 14:11:46;;;;;;;3.60;2.10;;;;;;;;;;5438127;26;20094;-69
2024/04/21 14:14:12;;;;;;;3.47;2.30;;;;;;;;;;5437565;26;20015;-69
2024/04/21 14:16:38;;;;;;;3.28;2.30;;;;;;;;;;5395593;26;20058;-69
2024/04/21 14:19:04;;;;;;;3.70;2.47;;;;;;;;;;5394764;26;20393;-69
2024/04/21 14:21:31;;;;;;;2.97;2.22;;;;;;;;;;5406692;26;20002;-68
2024/04/21 14:23:57;;;;;;;3.63;2.30;;;;;;;;;;5442653;26;20530;-69
2024/04/21 14:26:24;;;;;;;4.50;2.55;;;;;;;;;;5445938;26;20447;-69
2024/04/21 14:28:50;;;;;;;6.70;2.58;;;;;;;;;;5434911;26;20011;-69
2024/04/21 14:31:17;;;;;;;3.10;2.40;;;;;;;;;;5434897;26;19993;-69
2024/04/21 14:33:43;;;;;;;3.05;2.30;;;;;;;;;;5420847;26;19999;-69
2024/04/21 14:36:10;;;;;;;2.95;2.20;;;;;;;;;;5409794;26;19996;-70
2024/04/21 14:38:36;;;;;;;2.65;2.13;;;;;;;;;;5416067;26;20014;-70